createdAt,value
2023-01-08T00:01:11.049Z,4.89
2023-01-08T00:03:48.305Z,4.93
2023-01-08T00:06:17.705Z,4.83
2023-01-08T00:08:45.437Z,4.76
2023-01-08T00:11:13.530Z,4.66
2023-01-08T00:13:40.595Z,4.73
2023-01-08T00:16:12.562Z,4.63
2023-01-08T00:18:39.700Z,4.49
2023-01-08T00:21:06.976Z,4.45
2023-01-08T00:23:35.192Z,4.45
2023-01-08T00:26:02.823Z,4.43
2023-01-08T00:28:30.253Z,4.34
2023-01-08T00:30:57.760Z,4.29
2023-01-08T00:33:26.397Z,4.22
2023-01-08T00:35:53.728Z,4.18
2023-01-08T00:38:20.698Z,4.13
2023-01-08T00:40:48.764Z,4.15
2023-01-08T00:43:15.749Z,4.20
2023-01-08T00:45:42.991Z,4.20
2023-01-08T00:48:10.349Z,4.26
2023-01-08T00:50:38.927Z,4.26
2023-01-08T00:53:05.891Z,4.30
2023-01-08T00:55:33.078Z,4.23
2023-01-08T00:58:00.104Z,4.22
2023-01-08T01:03:33.439Z,4.16
2023-01-08T01:06:04.692Z,4.04
2023-01-08T01:08:31.873Z,3.97
2023-01-08T01:11:05.824Z,3.95
2023-01-08T01:13:32.749Z,3.95
2023-01-08T01:16:01.759Z,3.99
2023-01-08T01:18:32.524Z,4.01
2023-01-08T01:21:02.337Z,4.06
2023-01-08T01:23:30.672Z,3.79
2023-01-08T01:25:57.924Z,3.86
2023-01-08T01:28:24.843Z,3.86
2023-01-08T01:30:56.557Z,3.89
2023-01-08T01:33:27.861Z,3.90
2023-01-08T01:36:07.555Z,3.94
2023-01-08T01:38:36.641Z,4.00
2023-01-08T01:41:04.868Z,4.09
2023-01-08T01:43:39.865Z,4.14
2023-01-08T01:46:18.430Z,4.16
2023-01-08T01:48:46.922Z,4.11
2023-01-08T01:51:17.299Z,4.02
2023-01-08T01:53:46.993Z,4.00
2023-01-08T01:56:14.623Z,4.05
2023-01-08T01:58:41.653Z,4.07
2023-01-08T02:01:10.561Z,4.06
2023-01-08T02:03:39.463Z,3.96
2023-01-08T02:06:13.478Z,3.96
2023-01-08T02:08:49.789Z,3.92
2023-01-08T02:11:26.508Z,3.84
2023-01-08T02:14:02.412Z,3.88
2023-01-08T02:16:37.210Z,3.78
2023-01-08T02:19:13.900Z,3.80
2023-01-08T02:21:55.961Z,3.82
2023-01-08T02:24:30.964Z,3.85
2023-01-08T02:27:04.185Z,3.84
2023-01-08T02:29:33.665Z,3.86
2023-01-08T02:32:02.354Z,3.87
2023-01-08T02:34:32.686Z,3.86
2023-01-08T02:37:05.475Z,3.86
2023-01-08T02:39:45.526Z,3.87
2023-01-08T02:42:23.999Z,3.86
2023-01-08T02:45:04.587Z,3.81
2023-01-08T02:47:36.009Z,3.81
2023-01-08T02:50:10.959Z,3.72
2023-01-08T02:52:51.105Z,3.73
2023-01-08T02:55:22.534Z,3.78
2023-01-08T02:57:55.461Z,3.72
2023-01-08T03:00:29.409Z,3.72
2023-01-08T03:03:05.449Z,3.72
2023-01-08T03:05:33.610Z,3.69
2023-01-08T03:08:19.115Z,3.71
2023-01-08T03:10:55.754Z,3.75
2023-01-08T03:13:36.937Z,3.69
2023-01-08T03:16:11.103Z,3.65
2023-01-08T03:18:45.678Z,3.62
2023-01-08T03:21:17.726Z,3.53
2023-01-08T03:23:48.031Z,3.47
2023-01-08T03:26:21.452Z,3.12
2023-01-08T03:28:55.076Z,3.39
2023-01-08T03:31:25.550Z,3.45
2023-01-08T03:33:54.153Z,3.41
2023-01-08T03:36:24.964Z,3.45
2023-01-08T03:38:58.696Z,3.35
2023-01-08T03:41:29.758Z,3.38
2023-01-08T03:43:59.720Z,3.26
2023-01-08T03:46:32.585Z,3.24
2023-01-08T03:49:02.357Z,3.22
2023-01-08T03:51:29.298Z,3.29
2023-01-08T03:54:01.277Z,3.24
2023-01-08T03:56:30.762Z,3.22
2023-01-08T03:59:05.985Z,3.27
2023-01-08T04:01:34.645Z,3.26
2023-01-08T04:04:06.487Z,3.24
2023-01-08T04:06:39.067Z,3.20
2023-01-08T04:09:08.739Z,3.20
2023-01-08T04:11:35.789Z,3.15
2023-01-08T04:14:05.993Z,3.05
2023-01-08T04:16:35.345Z,2.99
2023-01-08T04:19:04.918Z,2.99
2023-01-08T04:21:32.531Z,2.97
2023-01-08T04:23:59.697Z,2.98
2023-01-08T04:26:31.467Z,2.94
2023-01-08T04:28:58.821Z,3.06
2023-01-08T04:31:27.184Z,3.09
2023-01-08T04:33:55.067Z,3.18
2023-01-08T04:36:22.046Z,3.24
2023-01-08T04:38:49.259Z,3.20
2023-01-08T04:41:24.189Z,3.08
2023-01-08T04:43:51.735Z,3.06
2023-01-08T04:46:18.838Z,3.15
2023-01-08T04:48:50.974Z,3.18
2023-01-08T04:51:17.850Z,3.28
2023-01-08T04:53:46.705Z,3.33
2023-01-08T04:56:14.003Z,3.38
2023-01-08T04:58:41.403Z,3.40
2023-01-08T05:01:13.107Z,3.41
2023-01-08T05:03:42.796Z,3.43
2023-01-08T05:06:11.218Z,3.30
2023-01-08T05:08:40.252Z,3.43
2023-01-08T05:11:09.844Z,3.40
2023-01-08T05:13:40.063Z,3.38
2023-01-08T05:16:09.307Z,3.39
2023-01-08T05:18:36.546Z,3.28
2023-01-08T05:21:06.353Z,3.23
2023-01-08T05:23:37.898Z,3.24
2023-01-08T05:26:06.499Z,3.23
2023-01-08T05:28:34.798Z,3.27
2023-01-08T05:31:01.652Z,3.21
2023-01-08T05:33:29.045Z,3.15
2023-01-08T05:35:56.531Z,3.12
2023-01-08T05:38:23.768Z,3.09
2023-01-08T05:40:54.113Z,3.11
2023-01-08T05:43:21.692Z,3.07
2023-01-08T05:45:48.636Z,3.04
2023-01-08T05:48:16.362Z,3.03
2023-01-08T05:50:50.181Z,3.02
2023-01-08T05:53:17.838Z,3.07
2023-01-08T05:55:44.743Z,3.10
2023-01-08T05:58:19.934Z,3.11
2023-01-08T06:00:48.428Z,3.07
2023-01-08T06:03:15.607Z,3.05
2023-01-08T06:05:42.530Z,3.01
2023-01-08T06:08:12.688Z,2.92
2023-01-08T06:10:41.436Z,2.87
2023-01-08T06:13:10.675Z,2.87
2023-01-08T06:15:40.127Z,2.78
2023-01-08T06:18:07.537Z,2.76
2023-01-08T06:20:34.433Z,2.74
2023-01-08T06:23:02.967Z,2.72
2023-01-08T06:25:31.349Z,2.69
2023-01-08T06:28:01.535Z,2.75
2023-01-08T06:30:33.144Z,2.73
2023-01-08T06:33:07.196Z,2.73
2023-01-08T06:35:34.051Z,2.73
2023-01-08T06:38:01.233Z,2.75
2023-01-08T06:40:36.179Z,2.76
2023-01-08T06:43:08.075Z,2.88
2023-01-08T06:45:35.442Z,2.91
2023-01-08T06:48:03.142Z,2.93
2023-01-08T06:50:32.551Z,2.99
2023-01-08T06:52:59.956Z,3.02
2023-01-08T06:55:28.897Z,3.10
2023-01-08T06:57:56.171Z,3.15
2023-01-08T07:00:25.761Z,3.17
2023-01-08T07:02:56.106Z,3.25
2023-01-08T07:05:24.067Z,3.26
2023-01-08T07:07:53.150Z,3.40
2023-01-08T07:10:22.250Z,3.48
2023-01-08T07:12:49.994Z,3.53
2023-01-08T07:15:17.133Z,3.48
2023-01-08T07:17:46.429Z,3.55
2023-01-08T07:20:13.298Z,3.55
2023-01-08T07:22:41.570Z,3.47
2023-01-08T07:25:10.527Z,3.62
2023-01-08T07:27:37.997Z,3.74
2023-01-08T07:30:07.146Z,3.87
2023-01-08T07:32:38.329Z,3.88
2023-01-08T07:35:05.928Z,3.93
2023-01-08T07:37:34.945Z,4.19
2023-01-08T07:40:02.077Z,4.37
2023-01-08T07:42:31.897Z,4.52
2023-01-08T07:44:58.744Z,4.66
2023-01-08T07:47:28.664Z,5.28
2023-01-08T07:49:55.630Z,5.31
2023-01-08T07:52:25.767Z,5.21
2023-01-08T07:54:52.721Z,5.41
2023-01-08T07:57:24.650Z,5.48
2023-01-08T07:59:52.821Z,5.49
2023-01-08T08:02:23.344Z,4.94
2023-01-08T08:04:52.884Z,4.23
2023-01-08T08:07:22.394Z,3.84
2023-01-08T08:09:50.874Z,3.30
2023-01-08T08:12:23.950Z,2.94
2023-01-08T08:14:54.047Z,2.83
2023-01-08T08:17:23.758Z,2.76
2023-01-08T08:19:50.763Z,2.69
2023-01-08T08:22:19.999Z,2.80
2023-01-08T08:24:46.908Z,2.94
2023-01-08T08:27:15.403Z,3.00
2023-01-08T08:29:42.356Z,4.71
2023-01-08T08:32:10.947Z,6.30
2023-01-08T08:34:40.390Z,6.28
2023-01-08T08:37:08.877Z,5.91
2023-01-08T08:39:36.832Z,5.47
2023-01-08T08:42:06.534Z,4.85
2023-01-08T08:44:35.178Z,4.71
2023-01-08T08:47:09.433Z,4.52
2023-01-08T08:49:40.824Z,4.53
2023-01-08T08:52:07.984Z,4.49
2023-01-08T08:54:34.983Z,4.70
2023-01-08T08:57:02.093Z,5.09
2023-01-08T08:59:30.724Z,5.44
2023-01-08T09:01:59.854Z,5.85
2023-01-08T09:04:29.771Z,5.66
2023-01-08T09:06:59.555Z,5.98
2023-01-08T09:09:26.858Z,6.37
2023-01-08T09:11:54.705Z,6.73
2023-01-08T09:14:25.074Z,7.04
2023-01-08T09:16:52.414Z,7.39
2023-01-08T09:19:19.656Z,7.72
2023-01-08T09:21:52.230Z,7.93
2023-01-08T09:24:23.261Z,8.00
2023-01-08T09:26:53.402Z,8.02
2023-01-08T09:29:20.849Z,7.92
2023-01-08T09:31:48.247Z,7.84
2023-01-08T09:34:15.858Z,7.81
2023-01-08T09:36:43.264Z,7.86
2023-01-08T09:39:10.636Z,7.96
2023-01-08T09:41:46.319Z,7.94
2023-01-08T09:44:20.995Z,8.12
2023-01-08T09:46:49.323Z,8.20
2023-01-08T09:49:22.146Z,8.16
2023-01-08T09:51:52.512Z,8.19
2023-01-08T09:54:22.953Z,8.21
2023-01-08T09:56:54.083Z,8.29
2023-01-08T09:59:21.573Z,8.37
2023-01-08T10:01:49.726Z,8.46
2023-01-08T10:04:25.675Z,8.51
2023-01-08T10:06:58.148Z,8.52
2023-01-08T10:09:27.575Z,8.62
2023-01-08T10:12:06.357Z,8.60
2023-01-08T10:14:37.605Z,8.51
2023-01-08T10:17:14.482Z,8.52
2023-01-08T10:19:44.366Z,8.60
2023-01-08T10:22:16.921Z,8.55
2023-01-08T10:24:44.321Z,8.48
2023-01-08T10:27:15.298Z,8.41
2023-01-08T10:29:42.591Z,8.51
2023-01-08T10:32:17.222Z,8.61
2023-01-08T10:34:48.000Z,8.59
2023-01-08T10:37:27.353Z,8.66
2023-01-08T10:40:03.531Z,8.76
2023-01-08T10:42:34.582Z,8.89
2023-01-08T10:45:07.863Z,8.85
2023-01-08T10:47:36.918Z,8.90
2023-01-08T10:50:22.099Z,8.96
2023-01-08T10:52:54.637Z,9.18
2023-01-08T10:55:33.575Z,9.40
2023-01-08T10:58:05.812Z,9.39
2023-01-08T11:00:37.336Z,9.51
2023-01-08T11:03:07.280Z,9.49
2023-01-08T11:05:36.183Z,9.63
2023-01-08T11:08:07.829Z,9.77
2023-01-08T11:10:37.095Z,9.85
2023-01-08T11:13:07.377Z,9.82
2023-01-08T11:15:37.876Z,9.86
2023-01-08T11:18:17.480Z,9.93
2023-01-08T11:20:45.012Z,10.03
2023-01-08T11:23:17.655Z,10.02
2023-01-08T11:25:51.777Z,10.15
2023-01-08T11:28:29.171Z,10.32
2023-01-08T11:31:04.990Z,10.44
2023-01-08T11:33:35.146Z,10.53
2023-01-08T11:36:09.769Z,10.53
2023-01-08T11:38:37.120Z,10.47
2023-01-08T11:41:16.913Z,10.51
2023-01-08T11:44:00.289Z,10.72
2023-01-08T11:46:38.280Z,10.78
2023-01-08T11:52:45.383Z,10.71
2023-01-08T11:55:24.249Z,10.81
2023-01-08T11:58:06.234Z,11.01
2023-01-08T12:00:57.301Z,11.15
2023-01-08T12:03:32.174Z,11.12
2023-01-08T12:06:10.011Z,11.21
2023-01-08T12:08:44.324Z,11.27
2023-01-08T12:11:17.513Z,11.20
2023-01-08T12:13:59.714Z,11.18
2023-01-08T12:16:46.228Z,11.31
2023-01-08T12:19:23.668Z,11.35
2023-01-08T12:22:06.406Z,11.40
2023-01-08T12:24:58.818Z,11.44
2023-01-08T12:27:56.242Z,11.51
2023-01-08T12:30:33.942Z,11.58
2023-01-08T12:33:08.491Z,11.75
2023-01-08T12:35:39.805Z,11.83
2023-01-08T12:38:13.506Z,11.92
2023-01-08T12:40:43.701Z,11.94
2023-01-08T12:43:18.816Z,11.96
2023-01-08T12:45:50.404Z,11.98
2023-01-08T12:48:21.439Z,12.09
2023-01-08T12:50:57.758Z,12.17
2023-01-08T12:53:42.504Z,12.14
2023-01-08T12:56:13.629Z,12.14
2023-01-08T12:58:59.575Z,12.18
2023-01-08T13:01:38.264Z,12.20
2023-01-08T13:04:09.827Z,12.15
2023-01-08T13:06:39.609Z,12.13
2023-01-08T13:09:06.806Z,12.17
2023-01-08T13:11:39.910Z,12.21
2023-01-08T13:14:12.622Z,12.27
2023-01-08T13:16:43.427Z,12.34
2023-01-08T13:19:25.948Z,12.34
2023-01-08T13:21:54.977Z,12.32
2023-01-08T13:24:31.373Z,12.34
2023-01-08T13:27:22.802Z,12.36
2023-01-08T13:29:53.177Z,12.37
2023-01-08T13:32:25.207Z,12.42
2023-01-08T13:35:19.870Z,12.33
2023-01-08T13:37:51.526Z,12.36
2023-01-08T13:40:53.349Z,12.45
2023-01-08T13:43:23.005Z,12.55
2023-01-08T13:46:05.416Z,12.62
2023-01-08T13:48:36.335Z,12.64
2023-01-08T13:51:05.988Z,12.61
2023-01-08T13:53:34.163Z,12.53
2023-01-08T13:56:05.356Z,12.54
2023-01-08T13:58:36.065Z,12.56
2023-01-08T14:01:06.675Z,12.44
2023-01-08T14:03:38.752Z,12.50
2023-01-08T14:06:16.462Z,12.46
2023-01-08T14:08:50.080Z,12.47
2023-01-08T14:11:17.772Z,12.45
2023-01-08T14:13:46.826Z,12.41
2023-01-08T14:16:16.257Z,12.29
2023-01-08T14:18:43.380Z,12.31
2023-01-08T14:21:13.495Z,12.48
2023-01-08T14:23:45.405Z,12.57
2023-01-08T14:26:21.362Z,12.58
2023-01-08T14:28:51.549Z,12.45
2023-01-08T14:31:26.908Z,12.21
2023-01-08T14:33:55.434Z,12.14
2023-01-08T14:36:28.383Z,12.07
2023-01-08T14:38:55.533Z,12.04
2023-01-08T14:41:53.617Z,12.00
2023-01-08T14:44:29.141Z,11.96
2023-01-08T14:47:05.166Z,11.95
2023-01-08T14:49:34.960Z,11.85
2023-01-08T14:52:03.640Z,11.95
2023-01-08T14:54:36.890Z,11.91
2023-01-08T14:57:06.110Z,11.87
2023-01-08T14:59:36.029Z,11.86
2023-01-08T15:02:09.732Z,11.77
2023-01-08T15:04:41.836Z,11.74
2023-01-08T15:07:20.861Z,11.59
2023-01-08T15:09:56.592Z,11.66
2023-01-08T15:12:25.568Z,11.69
2023-01-08T15:14:55.028Z,11.72
2023-01-08T15:17:28.383Z,11.77
2023-01-08T15:19:57.937Z,11.78
2023-01-08T15:22:28.790Z,11.78
2023-01-08T15:24:58.787Z,11.81
2023-01-08T15:27:29.953Z,11.82
2023-01-08T15:30:11.804Z,11.85
2023-01-08T15:32:39.842Z,11.82
2023-01-08T15:35:15.788Z,11.77
2023-01-08T15:37:45.373Z,11.79
2023-01-08T15:40:22.834Z,11.79
2023-01-08T15:43:08.311Z,11.70
2023-01-08T15:45:35.987Z,11.66
2023-01-08T15:48:03.863Z,11.68
2023-01-08T15:50:38.832Z,11.64
2023-01-08T15:53:15.826Z,11.62
2023-01-08T15:55:44.440Z,11.63
2023-01-08T15:58:12.864Z,11.56
2023-01-08T16:00:41.077Z,11.64
2023-01-08T16:03:12.093Z,11.64
2023-01-08T16:05:39.398Z,11.65
2023-01-08T16:10:53.511Z,11.78
2023-01-08T16:13:21.957Z,11.72
2023-01-08T16:15:49.017Z,11.66
2023-01-08T16:18:21.100Z,11.57
2023-01-08T16:20:51.932Z,11.47
2023-01-08T16:23:22.216Z,11.39
2023-01-08T16:25:49.647Z,11.28
2023-01-08T16:28:19.163Z,11.25
2023-01-08T16:30:46.161Z,11.24
2023-01-08T16:33:13.561Z,11.24
2023-01-08T16:35:43.489Z,11.26
2023-01-08T16:38:27.577Z,11.27
2023-01-08T16:40:57.924Z,11.23
2023-01-08T16:43:30.933Z,11.22
2023-01-08T16:46:03.104Z,11.20
2023-01-08T16:48:30.997Z,11.15
2023-01-08T16:51:04.773Z,11.11
2023-01-08T16:53:35.637Z,11.07
2023-01-08T16:56:03.006Z,11.07
2023-01-08T16:58:32.068Z,11.14
2023-01-08T17:00:59.269Z,11.12
2023-01-08T17:03:27.245Z,11.09
2023-01-08T17:06:00.082Z,11.05
2023-01-08T17:08:30.229Z,11.03
2023-01-08T17:10:57.252Z,11.05
2023-01-08T17:13:25.591Z,11.01
2023-01-08T17:15:59.009Z,10.92
2023-01-08T17:18:28.827Z,10.84
2023-01-08T17:20:55.824Z,10.69
2023-01-08T17:23:27.208Z,10.65
2023-01-08T17:25:54.444Z,10.57
2023-01-08T17:28:25.037Z,10.39
2023-01-08T17:30:53.377Z,10.46
2023-01-08T17:33:21.099Z,10.44
2023-01-08T17:35:48.277Z,10.46
2023-01-08T17:38:15.658Z,10.43
2023-01-08T17:40:48.705Z,10.47
2023-01-08T17:43:20.899Z,10.42
2023-01-08T17:45:58.903Z,10.34
2023-01-08T17:48:26.727Z,10.38
2023-01-08T17:50:53.617Z,10.34
2023-01-08T17:53:30.316Z,10.21
2023-01-08T17:56:00.541Z,10.24
2023-01-08T17:58:28.927Z,10.65
2023-01-08T18:01:01.049Z,10.81
2023-01-08T18:03:31.011Z,10.89
2023-01-08T18:05:57.949Z,10.79
2023-01-08T18:08:25.648Z,10.83
2023-01-08T18:10:56.862Z,10.82
2023-01-08T18:13:30.895Z,10.66
2023-01-08T18:16:06.100Z,10.68
2023-01-08T18:18:35.017Z,10.64
2023-01-08T18:21:02.265Z,10.73
2023-01-08T18:23:30.905Z,10.84
2023-01-08T18:26:05.411Z,10.95
2023-01-08T18:28:35.885Z,10.89
2023-01-08T18:31:07.752Z,10.61
2023-01-08T18:33:37.023Z,10.74
2023-01-08T18:36:09.131Z,10.66
2023-01-08T18:38:38.027Z,10.63
2023-01-08T18:41:07.444Z,10.78
2023-01-08T18:43:38.917Z,10.19
2023-01-08T18:46:13.586Z,9.14
2023-01-08T18:48:42.567Z,8.14
2023-01-08T18:51:09.609Z,7.69
2023-01-08T18:53:37.060Z,7.66
2023-01-08T18:56:05.071Z,7.54
2023-01-08T18:58:33.886Z,7.36
2023-01-08T19:01:03.476Z,7.16
2023-01-08T19:03:32.461Z,6.98
2023-01-08T19:05:59.539Z,6.79
2023-01-08T19:08:27.076Z,6.55
2023-01-08T19:10:54.133Z,6.34
2023-01-08T19:13:22.648Z,6.12
2023-01-08T19:15:53.528Z,6.20
2023-01-08T19:18:24.430Z,6.14
2023-01-08T19:20:56.220Z,6.00
2023-01-08T19:23:24.954Z,5.91
2023-01-08T19:25:52.014Z,5.73
2023-01-08T19:28:22.186Z,5.57
2023-01-08T19:30:57.152Z,5.73
2023-01-08T19:33:25.077Z,5.78
2023-01-08T19:35:53.545Z,5.54
2023-01-08T19:38:20.867Z,5.36
2023-01-08T19:40:50.748Z,5.67
2023-01-08T19:43:38.275Z,6.24
2023-01-08T19:46:15.391Z,5.97
2023-01-08T19:48:51.886Z,6.33
2023-01-08T19:51:20.295Z,6.10
2023-01-08T19:53:48.699Z,6.30
2023-01-08T19:56:15.846Z,6.35
2023-01-08T19:58:43.563Z,6.11
2023-01-08T20:01:12.818Z,6.48
2023-01-08T20:03:50.743Z,6.96
2023-01-08T20:06:21.899Z,7.16
2023-01-08T20:09:09.563Z,7.03
2023-01-08T20:11:36.452Z,7.53
2023-01-08T20:14:05.450Z,7.58
2023-01-08T20:16:41.260Z,7.66
2023-01-08T20:19:13.762Z,7.65
2023-01-08T20:21:43.149Z,7.76
2023-01-08T20:24:14.341Z,7.78
2023-01-08T20:26:44.370Z,7.84
2023-01-08T20:29:12.969Z,7.93
2023-01-08T20:31:40.348Z,7.96
2023-01-08T20:34:10.604Z,7.98
2023-01-08T20:36:38.642Z,8.04
2023-01-08T20:39:20.654Z,8.08
2023-01-08T20:41:55.474Z,8.00
2023-01-08T20:44:33.651Z,7.98
2023-01-08T20:47:05.887Z,7.93
2023-01-08T20:49:33.076Z,7.92
2023-01-08T20:52:09.131Z,7.89
2023-01-08T20:54:39.608Z,7.95
2023-01-08T20:57:06.546Z,7.93
2023-01-08T20:59:36.172Z,7.86
2023-01-08T21:02:07.293Z,7.90
2023-01-08T21:04:37.857Z,7.95
2023-01-08T21:07:04.810Z,7.95
2023-01-08T21:09:32.016Z,7.93
2023-01-08T21:12:00.354Z,7.94
2023-01-08T21:14:29.744Z,7.92
2023-01-08T21:16:56.822Z,7.97
2023-01-08T21:19:24.591Z,7.92
2023-01-08T21:21:56.461Z,7.88
2023-01-08T21:24:24.835Z,7.85
2023-01-08T21:26:51.862Z,7.79
2023-01-08T21:29:25.425Z,7.72
2023-01-08T21:31:52.448Z,7.72
2023-01-08T21:34:22.421Z,7.70
2023-01-08T21:36:49.439Z,7.67
2023-01-08T21:39:17.889Z,7.65
2023-01-08T21:42:03.316Z,7.67
2023-01-08T21:44:50.899Z,7.71
2023-01-08T21:47:20.292Z,7.76
2023-01-08T21:49:47.571Z,7.80
2023-01-08T21:52:37.865Z,7.71
2023-01-08T21:55:05.847Z,7.89
2023-01-08T21:57:38.955Z,7.87
2023-01-08T22:00:11.820Z,7.93
2023-01-08T22:02:39.344Z,7.95
2023-01-08T22:05:07.667Z,7.91
2023-01-08T22:07:35.007Z,7.90
2023-01-08T22:10:11.584Z,7.94
2023-01-08T22:12:38.925Z,7.92
2023-01-08T22:15:09.784Z,7.89
2023-01-08T22:17:39.576Z,7.89
2023-01-08T22:20:12.814Z,7.90
2023-01-08T22:22:45.587Z,7.99
2023-01-08T22:25:15.975Z,8.08
2023-01-08T22:27:42.993Z,8.13
2023-01-08T22:30:13.629Z,8.11
2023-01-08T22:32:42.155Z,8.00
2023-01-08T22:35:09.533Z,7.92
2023-01-08T22:37:40.708Z,7.86
2023-01-08T22:40:09.183Z,7.86
2023-01-08T22:42:37.499Z,7.82
2023-01-08T22:45:05.819Z,7.86
2023-01-08T22:47:36.312Z,7.79
2023-01-08T22:50:04.486Z,7.76
2023-01-08T22:52:31.796Z,7.71
2023-01-08T22:54:59.399Z,7.70
2023-01-08T22:57:26.363Z,7.68
2023-01-08T22:59:53.644Z,7.68
2023-01-08T23:02:24.379Z,7.67
2023-01-08T23:04:53.979Z,7.68
2023-01-08T23:07:21.044Z,7.69
2023-01-08T23:09:48.355Z,7.62
2023-01-08T23:12:15.442Z,7.62
2023-01-08T23:14:43.084Z,7.61
2023-01-08T23:17:09.958Z,7.60
2023-01-08T23:19:37.561Z,7.58
2023-01-08T23:22:05.973Z,7.49
2023-01-08T23:24:33.410Z,7.57
2023-01-08T23:27:00.624Z,7.58
2023-01-08T23:29:29.562Z,7.59
2023-01-08T23:31:57.777Z,7.64
2023-01-08T23:34:25.601Z,7.72
2023-01-08T23:36:52.571Z,7.67
2023-01-08T23:39:21.352Z,7.63
2023-01-08T23:41:48.253Z,7.64
2023-01-08T23:44:16.133Z,7.72
2023-01-08T23:46:43.080Z,7.70
2023-01-08T23:49:10.719Z,7.62
2023-01-08T23:51:37.985Z,7.66
2023-01-08T23:54:05.498Z,7.70
2023-01-08T23:56:34.182Z,7.73
2023-01-08T23:59:01.581Z,7.66
